sensor_id;sensor_type;location;lat;lon;timestamp;P1;durP1;ratioP1;P2;durP2;ratioP2
79375;SDS011;68846;53.150;18.136;2024-03-23T00:54:58;14.00;;;2.60;;
79375;SDS011;68846;53.150;18.136;2024-03-23T00:57:25;7.30;;;2.40;;
79375;SDS011;68846;53.150;18.136;2024-03-23T01:09:24;11.30;;;2.50;;
79375;SDS011;68846;53.150;18.136;2024-03-23T01:15:37;8.50;;;2.60;;
79375;SDS011;68846;53.150;18.136;2024-03-23T01:23:02;8.40;;;2.30;;
79375;SDS011;68846;53.150;18.136;2024-03-23T01:25:29;11.50;;;2.50;;
79375;SDS011;68846;53.150;18.136;2024-03-23T01:27:56;9.40;;;2.10;;
79375;SDS011;68846;53.150;18.136;2024-03-23T01:33:42;11.00;;;2.30;;
79375;SDS011;68846;53.150;18.136;2024-03-23T01:36:10;11.00;;;3.10;;
79375;SDS011;68846;53.150;18.136;2024-03-23T01:38:37;10.30;;;3.10;;
79375;SDS011;68846;53.150;18.136;2024-03-23T01:41:04;15.70;;;3.70;;
79375;SDS011;68846;53.150;18.136;2024-03-23T01:43:57;10.70;;;3.10;;
79375;SDS011;68846;53.150;18.136;2024-03-23T01:46:24;8.40;;;2.70;;
79375;SDS011;68846;53.150;18.136;2024-03-23T01:48:51;11.20;;;3.00;;
79375;SDS011;68846;53.150;18.136;2024-03-23T02:10:39;9.40;;;2.40;;
79375;SDS011;68846;53.150;18.136;2024-03-23T02:13:31;9.70;;;3.00;;
79375;SDS011;68846;53.150;18.136;2024-03-23T02:15:58;10.90;;;2.80;;
79375;SDS011;68846;53.150;18.136;2024-03-23T02:18:26;10.50;;;3.30;;
79375;SDS011;68846;53.150;18.136;2024-03-23T02:20:55;11.00;;;3.70;;
79375;SDS011;68846;53.150;18.136;2024-03-23T02:28:20;10.70;;;2.80;;
79375;SDS011;68846;53.150;18.136;2024-03-23T03:19:30;8.10;;;2.80;;
79375;SDS011;68846;53.150;18.136;2024-03-23T03:21:57;8.00;;;2.70;;
79375;SDS011;68846;53.150;18.136;2024-03-23T03:24:24;10.90;;;3.10;;
79375;SDS011;68846;53.150;18.136;2024-03-23T03:26:52;8.40;;;3.10;;
79375;SDS011;68846;53.150;18.136;2024-03-23T03:47:02;6.30;;;2.70;;
79375;SDS011;68846;53.150;18.136;2024-03-23T03:49:30;7.70;;;2.60;;
79375;SDS011;68846;53.150;18.136;2024-03-23T04:28:20;10.70;;;3.80;;
79375;SDS011;68846;53.150;18.136;2024-03-23T04:30:47;11.00;;;4.60;;
79375;SDS011;68846;53.150;18.136;2024-03-23T04:38:13;9.50;;;3.70;;
79375;SDS011;68846;53.150;18.136;2024-03-23T04:40:40;11.70;;;3.10;;
79375;SDS011;68846;53.150;18.136;2024-03-23T04:43:07;10.10;;;4.00;;
79375;SDS011;68846;53.150;18.136;2024-03-23T04:45:34;11.50;;;3.80;;
79375;SDS011;68846;53.150;18.136;2024-03-23T04:48:01;10.70;;;4.20;;
79375;SDS011;68846;53.150;18.136;2024-03-23T04:50:29;8.80;;;3.70;;
79375;SDS011;68846;53.150;18.136;2024-03-23T04:52:56;11.60;;;3.50;;
79375;SDS011;68846;53.150;18.136;2024-03-23T05:25:55;10.80;;;3.00;;
79375;SDS011;68846;53.150;18.136;2024-03-23T05:28:22;12.90;;;3.70;;
79375;SDS011;68846;53.150;18.136;2024-03-23T05:30:51;12.10;;;3.20;;
79375;SDS011;68846;53.150;18.136;2024-03-23T05:33:21;8.40;;;3.00;;
79375;SDS011;68846;53.150;18.136;2024-03-23T05:36:00;11.60;;;3.20;;
79375;SDS011;68846;53.150;18.136;2024-03-23T05:38:30;10.60;;;3.50;;
79375;SDS011;68846;53.150;18.136;2024-03-23T05:40:58;10.20;;;3.10;;
79375;SDS011;68846;53.150;18.136;2024-03-23T05:43:27;11.70;;;3.30;;
79375;SDS011;68846;53.150;18.136;2024-03-23T05:45:56;8.20;;;2.30;;
79375;SDS011;68846;53.150;18.136;2024-03-23T05:48:25;9.90;;;3.10;;
79375;SDS011;68846;53.150;18.136;2024-03-23T05:50:53;12.00;;;3.30;;
79375;SDS011;68846;53.150;18.136;2024-03-23T05:53:21;13.30;;;3.00;;
79375;SDS011;68846;53.150;18.136;2024-03-23T05:55:49;9.30;;;3.10;;
79375;SDS011;68846;53.150;18.136;2024-03-23T05:59:50;9.30;;;2.70;;
79375;SDS011;68846;53.150;18.136;2024-03-23T06:02:44;10.10;;;3.20;;
79375;SDS011;68846;53.150;18.136;2024-03-23T06:05:12;9.50;;;2.90;;
79375;SDS011;68846;53.150;18.136;2024-03-23T06:07:39;7.30;;;3.10;;
79375;SDS011;68846;53.150;18.136;2024-03-23T06:10:06;11.60;;;3.00;;
79375;SDS011;68846;53.150;18.136;2024-03-23T06:21:13;10.90;;;2.80;;
79375;SDS011;68846;53.150;18.136;2024-03-23T06:23:41;9.90;;;2.50;;
79375;SDS011;68846;53.150;18.136;2024-03-23T06:26:09;10.00;;;3.10;;
79375;SDS011;68846;53.150;18.136;2024-03-23T06:28:36;6.90;;;2.80;;
79375;SDS011;68846;53.150;18.136;2024-03-23T06:31:09;11.40;;;3.00;;
79375;SDS011;68846;53.150;18.136;2024-03-23T06:33:36;7.80;;;2.80;;
79375;SDS011;68846;53.150;18.136;2024-03-23T06:36:05;14.00;;;3.30;;
79375;SDS011;68846;53.150;18.136;2024-03-23T06:38:32;8.30;;;2.80;;
79375;SDS011;68846;53.150;18.136;2024-03-23T06:41:02;10.00;;;2.50;;
79375;SDS011;68846;53.150;18.136;2024-03-23T06:43:29;11.40;;;3.60;;
79375;SDS011;68846;53.150;18.136;2024-03-23T06:45:56;11.70;;;2.80;;
79375;SDS011;68846;53.150;18.136;2024-03-23T06:48:24;11.80;;;2.60;;
79375;SDS011;68846;53.150;18.136;2024-03-23T06:54:58;9.70;;;3.00;;
79375;SDS011;68846;53.150;18.136;2024-03-23T06:57:26;11.60;;;2.80;;
79375;SDS011;68846;53.150;18.136;2024-03-23T06:59:53;13.00;;;3.10;;
79375;SDS011;68846;53.150;18.136;2024-03-23T07:06:28;9.60;;;2.80;;
79375;SDS011;68846;53.150;18.136;2024-03-23T07:08:55;9.90;;;3.10;;
79375;SDS011;68846;53.150;18.136;2024-03-23T07:11:22;11.30;;;4.00;;
79375;SDS011;68846;53.150;18.136;2024-03-23T07:13:50;14.10;;;3.70;;
79375;SDS011;68846;53.150;18.136;2024-03-23T07:16:20;9.40;;;3.10;;
79375;SDS011;68846;53.150;18.136;2024-03-23T07:18:47;9.10;;;3.30;;
79375;SDS011;68846;53.150;18.136;2024-03-23T07:21:17;8.40;;;3.20;;
79375;SDS011;68846;53.150;18.136;2024-03-23T07:23:44;11.80;;;3.70;;
79375;SDS011;68846;53.150;18.136;2024-03-23T07:26:12;7.20;;;3.10;;
79375;SDS011;68846;53.150;18.136;2024-03-23T07:29:06;10.60;;;3.50;;
79375;SDS011;68846;53.150;18.136;2024-03-23T07:31:33;7.80;;;3.60;;
79375;SDS011;68846;53.150;18.136;2024-03-23T07:34:26;17.00;;;5.10;;
79375;SDS011;68846;53.150;18.136;2024-03-23T07:36:53;14.00;;;3.90;;
79375;SDS011;68846;53.150;18.136;2024-03-23T07:44:17;16.40;;;5.50;;
79375;SDS011;68846;53.150;18.136;2024-03-23T07:46:44;14.40;;;5.20;;
79375;SDS011;68846;53.150;18.136;2024-03-23T07:50:26;11.20;;;4.60;;
79375;SDS011;68846;53.150;18.136;2024-03-23T07:52:53;15.80;;;5.20;;
79375;SDS011;68846;53.150;18.136;2024-03-23T07:59:52;12.20;;;2.50;;
79375;SDS011;68846;53.150;18.136;2024-03-23T08:02:19;10.00;;;1.90;;
79375;SDS011;68846;53.150;18.136;2024-03-23T08:04:46;7.90;;;2.10;;
79375;SDS011;68846;53.150;18.136;2024-03-23T08:07:13;8.80;;;2.40;;
79375;SDS011;68846;53.150;18.136;2024-03-23T08:09:40;8.00;;;2.40;;
79375;SDS011;68846;53.150;18.136;2024-03-23T08:15:50;6.90;;;1.90;;
79375;SDS011;68846;53.150;18.136;2024-03-23T08:22:01;8.20;;;2.10;;
79375;SDS011;68846;53.150;18.136;2024-03-23T08:24:29;9.90;;;1.80;;
79375;SDS011;68846;53.150;18.136;2024-03-23T08:26:57;4.20;;;1.60;;
79375;SDS011;68846;53.150;18.136;2024-03-23T08:33:07;7.10;;;2.30;;
79375;SDS011;68846;53.150;18.136;2024-03-23T08:35:34;7.80;;;2.10;;
79375;SDS011;68846;53.150;18.136;2024-03-23T08:38:01;10.20;;;2.40;;
79375;SDS011;68846;53.150;18.136;2024-03-23T08:40:28;9.20;;;2.40;;
79375;SDS011;68846;53.150;18.136;2024-03-23T08:42:56;7.30;;;2.20;;
79375;SDS011;68846;53.150;18.136;2024-03-23T08:45:24;9.30;;;2.70;;
79375;SDS011;68846;53.150;18.136;2024-03-23T08:47:52;7.50;;;2.30;;
79375;SDS011;68846;53.150;18.136;2024-03-23T08:50:20;8.80;;;2.90;;
79375;SDS011;68846;53.150;18.136;2024-03-23T08:52:50;9.50;;;2.90;;
79375;SDS011;68846;53.150;18.136;2024-03-23T08:55:18;10.50;;;3.10;;
79375;SDS011;68846;53.150;18.136;2024-03-23T08:57:45;10.00;;;2.80;;
79375;SDS011;68846;53.150;18.136;2024-03-23T09:00:13;6.10;;;2.30;;
79375;SDS011;68846;53.150;18.136;2024-03-23T09:02:41;9.70;;;2.30;;
79375;SDS011;68846;53.150;18.136;2024-03-23T09:05:08;6.50;;;1.90;;
79375;SDS011;68846;53.150;18.136;2024-03-23T09:07:35;8.20;;;2.40;;
79375;SDS011;68846;53.150;18.136;2024-03-23T09:10:02;5.30;;;2.10;;
79375;SDS011;68846;53.150;18.136;2024-03-23T09:12:30;9.70;;;2.40;;
79375;SDS011;68846;53.150;18.136;2024-03-23T09:19:54;6.40;;;2.30;;
79375;SDS011;68846;53.150;18.136;2024-03-23T09:22:21;6.80;;;1.90;;
79375;SDS011;68846;53.150;18.136;2024-03-23T09:24:48;6.60;;;2.00;;
79375;SDS011;68846;53.150;18.136;2024-03-23T09:32:11;6.10;;;1.90;;
79375;SDS011;68846;53.150;18.136;2024-03-23T09:34:38;4.50;;;1.80;;
79375;SDS011;68846;53.150;18.136;2024-03-23T09:37:08;6.30;;;1.80;;
79375;SDS011;68846;53.150;18.136;2024-03-23T09:39:36;4.10;;;1.80;;
79375;SDS011;68846;53.150;18.136;2024-03-23T09:42:28;3.90;;;1.70;;
79375;SDS011;68846;53.150;18.136;2024-03-23T09:53:19;4.30;;;2.30;;
79375;SDS011;68846;53.150;18.136;2024-03-23T10:04:01;5.60;;;2.10;;
79375;SDS011;68846;53.150;18.136;2024-03-23T10:06:40;3.80;;;2.00;;
79375;SDS011;68846;53.150;18.136;2024-03-23T10:09:17;3.70;;;2.20;;
79375;SDS011;68846;53.150;18.136;2024-03-23T10:11:45;5.30;;;2.10;;
79375;SDS011;68846;53.150;18.136;2024-03-23T10:14:28;3.60;;;1.30;;
79375;SDS011;68846;53.150;18.136;2024-03-23T10:17:20;4.20;;;2.00;;
79375;SDS011;68846;53.150;18.136;2024-03-23T10:20:09;5.10;;;1.80;;
79375;SDS011;68846;53.150;18.136;2024-03-23T10:22:38;3.90;;;2.10;;
79375;SDS011;68846;53.150;18.136;2024-03-23T10:25:11;3.00;;;1.00;;
79375;SDS011;68846;53.150;18.136;2024-03-23T10:27:40;2.90;;;1.40;;
79375;SDS011;68846;53.150;18.136;2024-03-23T10:30:14;4.80;;;1.50;;
79375;SDS011;68846;53.150;18.136;2024-03-23T10:32:41;3.70;;;1.40;;
79375;SDS011;68846;53.150;18.136;2024-03-23T10:35:24;3.20;;;1.50;;
79375;SDS011;68846;53.150;18.136;2024-03-23T10:37:54;7.40;;;1.90;;
79375;SDS011;68846;53.150;18.136;2024-03-23T10:40:23;4.10;;;1.70;;
79375;SDS011;68846;53.150;18.136;2024-03-23T10:43:01;5.40;;;1.70;;
79375;SDS011;68846;53.150;18.136;2024-03-23T10:45:30;2.80;;;1.80;;
79375;SDS011;68846;53.150;18.136;2024-03-23T10:48:01;6.50;;;1.70;;
79375;SDS011;68846;53.150;18.136;2024-03-23T10:50:30;4.30;;;1.50;;
79375;SDS011;68846;53.150;18.136;2024-03-23T10:52:57;4.50;;;1.70;;
79375;SDS011;68846;53.150;18.136;2024-03-23T10:55:26;3.20;;;1.40;;
79375;SDS011;68846;53.150;18.136;2024-03-23T10:57:55;9.10;;;1.80;;
79375;SDS011;68846;53.150;18.136;2024-03-23T11:00:27;5.40;;;1.70;;
79375;SDS011;68846;53.150;18.136;2024-03-23T11:02:57;6.50;;;1.80;;
79375;SDS011;68846;53.150;18.136;2024-03-23T11:07:55;5.60;;;1.70;;
79375;SDS011;68846;53.150;18.136;2024-03-23T11:10:31;6.40;;;1.70;;
79375;SDS011;68846;53.150;18.136;2024-03-23T11:13:21;5.00;;;1.60;;
79375;SDS011;68846;53.150;18.136;2024-03-23T11:15:50;6.80;;;2.40;;
79375;SDS011;68846;53.150;18.136;2024-03-23T11:18:20;8.30;;;1.70;;
79375;SDS011;68846;53.150;18.136;2024-03-23T11:20:48;6.70;;;1.70;;
79375;SDS011;68846;53.150;18.136;2024-03-23T11:23:28;3.90;;;1.20;;
79375;SDS011;68846;53.150;18.136;2024-03-23T11:25:55;3.50;;;1.40;;
79375;SDS011;68846;53.150;18.136;2024-03-23T11:28:22;6.40;;;1.60;;
79375;SDS011;68846;53.150;18.136;2024-03-23T11:30:50;7.50;;;1.50;;
79375;SDS011;68846;53.150;18.136;2024-03-23T11:33:17;8.80;;;2.50;;
79375;SDS011;68846;53.150;18.136;2024-03-23T11:35:44;6.60;;;3.30;;
79375;SDS011;68846;53.150;18.136;2024-03-23T11:38:13;9.90;;;3.40;;
79375;SDS011;68846;53.150;18.136;2024-03-23T11:40:48;7.60;;;3.50;;
79375;SDS011;68846;53.150;18.136;2024-03-23T11:43:18;7.90;;;2.90;;
79375;SDS011;68846;53.150;18.136;2024-03-23T11:45:49;7.80;;;2.00;;
79375;SDS011;68846;53.150;18.136;2024-03-23T11:48:22;7.30;;;1.50;;
79375;SDS011;68846;53.150;18.136;2024-03-23T11:50:54;3.80;;;1.60;;
79375;SDS011;68846;53.150;18.136;2024-03-23T11:53:23;6.70;;;2.30;;
79375;SDS011;68846;53.150;18.136;2024-03-23T11:55:58;6.30;;;1.80;;
79375;SDS011;68846;53.150;18.136;2024-03-23T11:58:27;7.70;;;2.20;;
79375;SDS011;68846;53.150;18.136;2024-03-23T12:00:56;8.40;;;2.40;;
79375;SDS011;68846;53.150;18.136;2024-03-23T12:03:24;4.20;;;2.20;;
79375;SDS011;68846;53.150;18.136;2024-03-23T12:06:00;5.30;;;1.70;;
79375;SDS011;68846;53.150;18.136;2024-03-23T12:08:32;5.80;;;1.70;;
79375;SDS011;68846;53.150;18.136;2024-03-23T12:11:09;6.60;;;3.20;;
79375;SDS011;68846;53.150;18.136;2024-03-23T12:13:39;6.00;;;2.10;;
79375;SDS011;68846;53.150;18.136;2024-03-23T12:16:15;5.30;;;2.00;;
79375;SDS011;68846;53.150;18.136;2024-03-23T12:18:44;5.70;;;1.60;;
79375;SDS011;68846;53.150;18.136;2024-03-23T12:21:13;3.90;;;1.80;;
79375;SDS011;68846;53.150;18.136;2024-03-23T12:23:40;8.20;;;2.00;;
79375;SDS011;68846;53.150;18.136;2024-03-23T12:26:08;3.60;;;1.90;;
79375;SDS011;68846;53.150;18.136;2024-03-23T12:28:35;7.90;;;1.90;;
79375;SDS011;68846;53.150;18.136;2024-03-23T12:31:04;5.40;;;1.90;;
79375;SDS011;68846;53.150;18.136;2024-03-23T12:33:32;4.50;;;2.20;;
79375;SDS011;68846;53.150;18.136;2024-03-23T12:35:59;7.00;;;2.00;;
79375;SDS011;68846;53.150;18.136;2024-03-23T12:38:27;6.30;;;1.90;;
79375;SDS011;68846;53.150;18.136;2024-03-23T12:40:55;4.10;;;2.40;;
79375;SDS011;68846;53.150;18.136;2024-03-23T12:43:22;12.50;;;3.40;;
79375;SDS011;68846;53.150;18.136;2024-03-23T12:49:02;7.40;;;4.20;;
79375;SDS011;68846;53.150;18.136;2024-03-23T12:51:32;6.40;;;3.70;;
79375;SDS011;68846;53.150;18.136;2024-03-23T12:54:00;11.90;;;3.30;;
79375;SDS011;68846;53.150;18.136;2024-03-23T12:56:42;6.10;;;2.80;;
79375;SDS011;68846;53.150;18.136;2024-03-23T12:59:09;7.30;;;3.00;;
79375;SDS011;68846;53.150;18.136;2024-03-23T13:01:37;6.40;;;2.90;;
79375;SDS011;68846;53.150;18.136;2024-03-23T13:04:08;6.40;;;3.10;;
79375;SDS011;68846;53.150;18.136;2024-03-23T13:06:36;4.90;;;2.80;;
79375;SDS011;68846;53.150;18.136;2024-03-23T13:09:05;4.90;;;2.90;;
79375;SDS011;68846;53.150;18.136;2024-03-23T13:11:43;3.90;;;2.60;;
79375;SDS011;68846;53.150;18.136;2024-03-23T13:14:16;3.30;;;2.00;;
79375;SDS011;68846;53.150;18.136;2024-03-23T13:16:47;4.60;;;2.20;;
79375;SDS011;68846;53.150;18.136;2024-03-23T13:19:18;3.00;;;1.80;;
79375;SDS011;68846;53.150;18.136;2024-03-23T13:21:47;6.10;;;1.60;;
79375;SDS011;68846;53.150;18.136;2024-03-23T13:24:15;3.20;;;1.30;;
79375;SDS011;68846;53.150;18.136;2024-03-23T13:26:42;5.10;;;1.70;;
79375;SDS011;68846;53.150;18.136;2024-03-23T13:29:09;3.80;;;1.50;;
79375;SDS011;68846;53.150;18.136;2024-03-23T13:31:42;4.20;;;2.00;;
79375;SDS011;68846;53.150;18.136;2024-03-23T13:34:10;4.70;;;1.80;;
79375;SDS011;68846;53.150;18.136;2024-03-23T13:36:41;3.30;;;2.10;;
79375;SDS011;68846;53.150;18.136;2024-03-23T13:39:17;4.30;;;2.10;;
79375;SDS011;68846;53.150;18.136;2024-03-23T13:41:44;4.10;;;2.20;;
79375;SDS011;68846;53.150;18.136;2024-03-23T13:44:13;3.80;;;2.40;;
79375;SDS011;68846;53.150;18.136;2024-03-23T13:46:41;4.90;;;2.50;;
79375;SDS011;68846;53.150;18.136;2024-03-23T13:51:58;3.40;;;1.60;;
79375;SDS011;68846;53.150;18.136;2024-03-23T13:54:26;5.60;;;2.10;;
79375;SDS011;68846;53.150;18.136;2024-03-23T13:56:55;2.50;;;1.10;;
79375;SDS011;68846;53.150;18.136;2024-03-23T13:59:23;4.20;;;1.60;;
79375;SDS011;68846;53.150;18.136;2024-03-23T14:02:16;3.00;;;1.10;;
79375;SDS011;68846;53.150;18.136;2024-03-23T14:04:43;1.80;;;1.00;;
79375;SDS011;68846;53.150;18.136;2024-03-23T14:07:10;1.90;;;1.10;;
79375;SDS011;68846;53.150;18.136;2024-03-23T14:09:37;2.90;;;1.20;;
79375;SDS011;68846;53.150;18.136;2024-03-23T14:12:04;4.10;;;1.20;;
79375;SDS011;68846;53.150;18.136;2024-03-23T14:14:33;2.60;;;1.20;;
79375;SDS011;68846;53.150;18.136;2024-03-23T14:17:01;2.70;;;1.10;;
79375;SDS011;68846;53.150;18.136;2024-03-23T14:19:28;2.00;;;0.90;;
79375;SDS011;68846;53.150;18.136;2024-03-23T14:21:55;3.50;;;1.20;;
79375;SDS011;68846;53.150;18.136;2024-03-23T14:24:23;5.30;;;1.00;;
79375;SDS011;68846;53.150;18.136;2024-03-23T14:26:51;2.00;;;1.10;;
79375;SDS011;68846;53.150;18.136;2024-03-23T14:29:18;3.30;;;1.20;;
79375;SDS011;68846;53.150;18.136;2024-03-23T14:31:45;4.80;;;1.40;;
79375;SDS011;68846;53.150;18.136;2024-03-23T14:34:12;4.70;;;1.90;;
79375;SDS011;68846;53.150;18.136;2024-03-23T14:36:40;3.60;;;1.30;;
79375;SDS011;68846;53.150;18.136;2024-03-23T14:39:07;4.90;;;1.80;;
79375;SDS011;68846;53.150;18.136;2024-03-23T14:41:34;2.70;;;1.50;;
79375;SDS011;68846;53.150;18.136;2024-03-23T14:44:01;3.60;;;1.50;;
79375;SDS011;68846;53.150;18.136;2024-03-23T14:46:28;4.40;;;1.30;;
79375;SDS011;68846;53.150;18.136;2024-03-23T14:48:56;3.90;;;1.40;;
79375;SDS011;68846;53.150;18.136;2024-03-23T14:51:24;1.70;;;1.10;;
79375;SDS011;68846;53.150;18.136;2024-03-23T14:53:51;3.30;;;1.10;;
79375;SDS011;68846;53.150;18.136;2024-03-23T14:56:19;2.40;;;1.00;;
79375;SDS011;68846;53.150;18.136;2024-03-23T14:58:46;2.50;;;1.10;;
79375;SDS011;68846;53.150;18.136;2024-03-23T15:01:14;4.00;;;1.20;;
79375;SDS011;68846;53.150;18.136;2024-03-23T15:03:41;2.20;;;1.20;;
79375;SDS011;68846;53.150;18.136;2024-03-23T15:06:09;3.20;;;1.50;;
79375;SDS011;68846;53.150;18.136;2024-03-23T15:08:37;2.80;;;1.10;;
79375;SDS011;68846;53.150;18.136;2024-03-23T15:11:07;2.90;;;1.10;;
79375;SDS011;68846;53.150;18.136;2024-03-23T15:13:35;2.30;;;0.80;;
79375;SDS011;68846;53.150;18.136;2024-03-23T15:16:03;1.50;;;1.00;;
79375;SDS011;68846;53.150;18.136;2024-03-23T15:18:31;2.80;;;1.10;;
79375;SDS011;68846;53.150;18.136;2024-03-23T15:21:03;1.70;;;1.10;;
79375;SDS011;68846;53.150;18.136;2024-03-23T15:23:34;1.40;;;0.80;;
79375;SDS011;68846;53.150;18.136;2024-03-23T15:26:03;1.50;;;0.70;;
79375;SDS011;68846;53.150;18.136;2024-03-23T15:28:32;1.90;;;0.90;;
79375;SDS011;68846;53.150;18.136;2024-03-23T15:31:28;1.10;;;0.60;;
79375;SDS011;68846;53.150;18.136;2024-03-23T15:33:59;3.00;;;1.20;;
79375;SDS011;68846;53.150;18.136;2024-03-23T15:36:28;1.80;;;0.60;;
79375;SDS011;68846;53.150;18.136;2024-03-23T15:38:56;1.90;;;0.90;;
79375;SDS011;68846;53.150;18.136;2024-03-23T15:41:24;1.70;;;0.90;;
79375;SDS011;68846;53.150;18.136;2024-03-23T15:43:51;2.60;;;1.40;;
79375;SDS011;68846;53.150;18.136;2024-03-23T15:46:19;5.20;;;1.40;;
79375;SDS011;68846;53.150;18.136;2024-03-23T15:48:46;2.20;;;1.10;;
79375;SDS011;68846;53.150;18.136;2024-03-23T15:51:14;4.60;;;1.00;;
79375;SDS011;68846;53.150;18.136;2024-03-23T15:53:41;3.00;;;1.20;;
79375;SDS011;68846;53.150;18.136;2024-03-23T15:56:09;2.30;;;1.10;;
79375;SDS011;68846;53.150;18.136;2024-03-23T15:59:02;2.60;;;1.20;;
79375;SDS011;68846;53.150;18.136;2024-03-23T16:01:33;4.10;;;1.10;;
79375;SDS011;68846;53.150;18.136;2024-03-23T16:04:01;2.10;;;1.10;;
79375;SDS011;68846;53.150;18.136;2024-03-23T16:06:28;3.40;;;1.30;;
79375;SDS011;68846;53.150;18.136;2024-03-23T16:08:55;3.30;;;1.60;;
79375;SDS011;68846;53.150;18.136;2024-03-23T16:11:22;3.60;;;1.60;;
79375;SDS011;68846;53.150;18.136;2024-03-23T16:13:50;3.10;;;1.40;;
79375;SDS011;68846;53.150;18.136;2024-03-23T16:16:17;3.40;;;1.10;;
79375;SDS011;68846;53.150;18.136;2024-03-23T16:18:47;3.30;;;1.20;;
79375;SDS011;68846;53.150;18.136;2024-03-23T16:21:14;3.80;;;1.30;;
79375;SDS011;68846;53.150;18.136;2024-03-23T16:23:43;3.70;;;1.50;;
79375;SDS011;68846;53.150;18.136;2024-03-23T16:26:12;1.90;;;1.20;;
79375;SDS011;68846;53.150;18.136;2024-03-23T16:28:41;4.10;;;1.40;;
79375;SDS011;68846;53.150;18.136;2024-03-23T16:31:09;2.30;;;1.20;;
79375;SDS011;68846;53.150;18.136;2024-03-23T16:33:37;6.00;;;2.30;;
79375;SDS011;68846;53.150;18.136;2024-03-23T16:36:09;5.60;;;1.70;;
79375;SDS011;68846;53.150;18.136;2024-03-23T16:38:39;2.70;;;1.40;;
79375;SDS011;68846;53.150;18.136;2024-03-23T16:41:12;2.90;;;1.80;;
79375;SDS011;68846;53.150;18.136;2024-03-23T16:43:45;2.90;;;1.80;;
79375;SDS011;68846;53.150;18.136;2024-03-23T16:46:13;5.10;;;1.60;;
79375;SDS011;68846;53.150;18.136;2024-03-23T16:48:44;7.20;;;1.70;;
79375;SDS011;68846;53.150;18.136;2024-03-23T16:51:14;3.40;;;1.60;;
79375;SDS011;68846;53.150;18.136;2024-03-23T16:53:42;3.60;;;1.60;;
79375;SDS011;68846;53.150;18.136;2024-03-23T16:56:12;3.60;;;1.70;;
79375;SDS011;68846;53.150;18.136;2024-03-23T16:58:40;4.30;;;1.60;;
79375;SDS011;68846;53.150;18.136;2024-03-23T17:01:12;4.30;;;2.30;;
79375;SDS011;68846;53.150;18.136;2024-03-23T17:03:48;4.00;;;1.90;;
79375;SDS011;68846;53.150;18.136;2024-03-23T17:06:19;2.70;;;1.50;;
79375;SDS011;68846;53.150;18.136;2024-03-23T17:08:47;4.20;;;2.00;;
79375;SDS011;68846;53.150;18.136;2024-03-23T17:11:15;5.70;;;2.30;;
79375;SDS011;68846;53.150;18.136;2024-03-23T17:13:44;3.70;;;1.70;;
79375;SDS011;68846;53.150;18.136;2024-03-23T17:16:11;2.50;;;1.90;;
79375;SDS011;68846;53.150;18.136;2024-03-23T17:18:39;2.20;;;1.60;;
79375;SDS011;68846;53.150;18.136;2024-03-23T17:21:07;3.90;;;1.70;;
79375;SDS011;68846;53.150;18.136;2024-03-23T17:23:34;6.80;;;1.70;;
79375;SDS011;68846;53.150;18.136;2024-03-23T17:26:02;6.60;;;2.00;;
79375;SDS011;68846;53.150;18.136;2024-03-23T17:28:29;8.30;;;2.40;;
79375;SDS011;68846;53.150;18.136;2024-03-23T17:30:56;4.80;;;2.10;;
79375;SDS011;68846;53.150;18.136;2024-03-23T17:33:24;7.50;;;2.80;;
79375;SDS011;68846;53.150;18.136;2024-03-23T17:35:51;7.70;;;2.90;;
79375;SDS011;68846;53.150;18.136;2024-03-23T17:38:18;8.20;;;2.20;;
79375;SDS011;68846;53.150;18.136;2024-03-23T17:40:46;9.60;;;2.90;;
79375;SDS011;68846;53.150;18.136;2024-03-23T17:43:14;6.50;;;2.90;;
79375;SDS011;68846;53.150;18.136;2024-03-23T17:48:08;7.40;;;2.30;;
79375;SDS011;68846;53.150;18.136;2024-03-23T17:50:35;8.80;;;2.70;;
79375;SDS011;68846;53.150;18.136;2024-03-23T17:53:03;5.00;;;2.30;;
79375;SDS011;68846;53.150;18.136;2024-03-23T17:55:30;7.20;;;2.70;;
79375;SDS011;68846;53.150;18.136;2024-03-23T17:57:57;6.60;;;3.00;;
79375;SDS011;68846;53.150;18.136;2024-03-23T18:00:27;4.90;;;2.40;;
79375;SDS011;68846;53.150;18.136;2024-03-23T18:02:54;5.90;;;2.10;;
79375;SDS011;68846;53.150;18.136;2024-03-23T18:05:21;7.00;;;2.40;;
79375;SDS011;68846;53.150;18.136;2024-03-23T18:07:48;4.50;;;1.70;;
79375;SDS011;68846;53.150;18.136;2024-03-23T18:10:16;3.80;;;1.80;;
79375;SDS011;68846;53.150;18.136;2024-03-23T18:12:43;4.90;;;1.50;;
79375;SDS011;68846;53.150;18.136;2024-03-23T18:15:12;4.80;;;2.30;;
79375;SDS011;68846;53.150;18.136;2024-03-23T18:17:40;4.50;;;1.90;;
79375;SDS011;68846;53.150;18.136;2024-03-23T18:20:07;5.40;;;1.80;;
79375;SDS011;68846;53.150;18.136;2024-03-23T18:22:34;5.00;;;1.80;;
79375;SDS011;68846;53.150;18.136;2024-03-23T18:25:02;4.90;;;2.00;;
79375;SDS011;68846;53.150;18.136;2024-03-23T18:27:32;4.70;;;2.30;;
79375;SDS011;68846;53.150;18.136;2024-03-23T18:30:01;4.70;;;2.20;;
79375;SDS011;68846;53.150;18.136;2024-03-23T18:32:28;4.30;;;2.40;;
79375;SDS011;68846;53.150;18.136;2024-03-23T18:34:55;8.50;;;2.60;;
79375;SDS011;68846;53.150;18.136;2024-03-23T18:37:23;7.90;;;3.00;;
79375;SDS011;68846;53.150;18.136;2024-03-23T18:39:51;6.80;;;2.70;;
79375;SDS011;68846;53.150;18.136;2024-03-23T18:42:20;7.90;;;3.10;;
79375;SDS011;68846;53.150;18.136;2024-03-23T18:44:47;8.60;;;4.10;;
79375;SDS011;68846;53.150;18.136;2024-03-23T18:47:17;7.30;;;3.80;;
79375;SDS011;68846;53.150;18.136;2024-03-23T18:49:44;9.00;;;4.20;;
79375;SDS011;68846;53.150;18.136;2024-03-23T18:52:11;9.00;;;3.80;;
79375;SDS011;68846;53.150;18.136;2024-03-23T18:54:38;9.90;;;3.70;;
79375;SDS011;68846;53.150;18.136;2024-03-23T18:57:05;7.40;;;3.40;;
79375;SDS011;68846;53.150;18.136;2024-03-23T18:59:33;5.90;;;3.60;;
79375;SDS011;68846;53.150;18.136;2024-03-23T19:02:00;12.00;;;5.00;;
79375;SDS011;68846;53.150;18.136;2024-03-23T19:04:27;8.60;;;4.20;;
79375;SDS011;68846;53.150;18.136;2024-03-23T19:06:55;8.60;;;4.80;;
79375;SDS011;68846;53.150;18.136;2024-03-23T19:09:22;9.30;;;3.80;;
79375;SDS011;68846;53.150;18.136;2024-03-23T19:11:52;8.40;;;4.40;;
79375;SDS011;68846;53.150;18.136;2024-03-23T19:14:19;8.60;;;4.30;;
79375;SDS011;68846;53.150;18.136;2024-03-23T19:19:13;7.60;;;4.30;;
79375;SDS011;68846;53.150;18.136;2024-03-23T19:21:40;9.10;;;4.40;;
79375;SDS011;68846;53.150;18.136;2024-03-23T19:24:08;8.70;;;3.80;;
79375;SDS011;68846;53.150;18.136;2024-03-23T19:26:35;9.30;;;4.60;;
79375;SDS011;68846;53.150;18.136;2024-03-23T19:29:02;11.70;;;5.10;;
79375;SDS011;68846;53.150;18.136;2024-03-23T19:31:32;7.30;;;3.70;;
79375;SDS011;68846;53.150;18.136;2024-03-23T19:33:59;7.90;;;4.10;;
79375;SDS011;68846;53.150;18.136;2024-03-23T19:36:27;6.60;;;4.70;;
79375;SDS011;68846;53.150;18.136;2024-03-23T19:38:54;8.70;;;4.40;;
79375;SDS011;68846;53.150;18.136;2024-03-23T19:41:23;12.00;;;4.50;;
79375;SDS011;68846;53.150;18.136;2024-03-23T19:43:51;8.70;;;4.10;;
79375;SDS011;68846;53.150;18.136;2024-03-23T19:46:19;8.10;;;3.40;;
79375;SDS011;68846;53.150;18.136;2024-03-23T19:48:50;10.40;;;3.80;;
79375;SDS011;68846;53.150;18.136;2024-03-23T19:51:18;8.20;;;3.60;;
79375;SDS011;68846;53.150;18.136;2024-03-23T19:53:45;7.00;;;3.20;;
79375;SDS011;68846;53.150;18.136;2024-03-23T19:58:39;5.50;;;2.80;;
79375;SDS011;68846;53.150;18.136;2024-03-23T20:01:16;5.70;;;3.50;;
79375;SDS011;68846;53.150;18.136;2024-03-23T20:03:45;7.50;;;3.30;;
79375;SDS011;68846;53.150;18.136;2024-03-23T20:06:13;8.10;;;4.00;;